Barlow, Kentucky
Current Conditions -  °F | °C
As of 4:35 AM on Wednesday 22 Oct 2014 (Local Time) from KCIR Reporting Station
Clear Clear  
Wind Chill: 46°   Ceiling: Unl
Heat Index: 46°   Visibility: 10mi
Dew Point: 39°   Wind: 3mph
Humidity: 78%   Direction: 10°N
Pressure: 30.22"   Gusts: NA
Location:  37.05°N, 89.05°W
Report Text: KCIR 220935Z AUTO 01003KT 10SM CLR 08/04 A3022 RMK AO2 T00760040
Loading
Personal Weather Stations






























Interactive Weather Map
Tropical Storm Tracking
New forecast layout! Learn more

10-Day Weather Forecast

Advertisements
Track Severe Weather on mobile